Time;durP1;ratioP1;P1;durP2;ratioP2;P2;SDS_P1;SDS_P2;PMS_P1;PMS_P2;Temp;Humidity;BMP_temperature;BMP_pressure;BME280_temperature;BME280_humidity;BME280_pressure;Samples;Min_cycle;Max_cycle;Signal;HPM_P1;HPM_P2
2022/08/02 00:02:10;;;;;;;6.82;1.90;;;29.00;49.70;;;;;;5053760;28;20392;-72
2022/08/02 00:05:14;;;;;;;2.75;1.88;;;29.10;50.50;;;;;;5054050;28;20036;-72
2022/08/02 00:08:18;;;;;;;5.00;2.25;;;29.10;51.10;;;;;;5053610;28;20036;-72
2022/08/02 00:11:22;;;;;;;6.55;2.05;;;29.00;51.60;;;;;;5052882;28;20048;-72
2022/08/02 00:14:26;;;;;;;6.13;2.10;;;28.80;51.90;;;;;;5053639;28;20479;-72
2022/08/02 00:17:30;;;;;;;4.80;2.35;;;28.70;51.90;;;;;;5053409;28;20040;-72
2022/08/02 00:20:33;;;;;;;5.15;2.17;;;28.60;52.10;;;;;;5053325;28;20527;-72
2022/08/02 00:23:38;;;;;;;2.80;1.55;;;28.60;52.00;;;;;;5053267;28;20067;-72
2022/08/02 00:26:42;;;;;;;2.55;1.70;;;28.60;51.80;;;;;;5053311;28;20040;-72
2022/08/02 00:29:46;;;;;;;3.25;1.80;;;28.60;52.20;;;;;;5052589;28;20056;-72
2022/08/02 00:32:50;;;;;;;8.18;1.80;;;28.60;52.50;;;;;;5052793;28;20044;-72
2022/08/02 00:35:54;;;;;;;2.88;1.80;;;28.60;52.00;;;;;;5053568;28;20036;-72
2022/08/02 00:38:58;;;;;;;4.13;1.70;;;28.50;52.30;;;;;;5053256;28;20048;-72
2022/08/02 00:42:03;;;;;;;5.28;2.05;;;28.30;52.80;;;;;;5052188;28;20295;-72
2022/08/02 00:45:07;;;;;;;2.85;1.58;;;28.20;53.20;;;;;;5053282;28;20051;-72
2022/08/02 00:48:12;;;;;;;8.05;2.22;;;28.10;52.80;;;;;;5051945;28;20048;-72
2022/08/02 00:51:16;;;;;;;7.40;1.98;;;28.10;52.90;;;;;;5052891;28;20678;-72
2022/08/02 00:54:20;;;;;;;6.45;2.20;;;28.00;53.20;;;;;;5053006;28;20044;-72
2022/08/02 00:57:24;;;;;;;6.70;2.28;;;27.90;53.30;;;;;;5052881;28;20044;-72
2022/08/02 01:00:28;;;;;;;11.13;2.92;;;27.90;53.70;;;;;;5052679;28;20052;-72
2022/08/02 01:03:35;;;;;;;10.85;2.20;;;27.90;53.70;;;;;;5052063;28;20056;-72
2022/08/02 01:06:41;;;;;;;7.25;1.73;;;27.90;53.70;;;;;;5052277;28;20063;-72
2022/08/02 01:09:47;;;;;;;13.07;2.28;;;27.70;54.60;;;;;;5052572;28;20115;-72
2022/08/02 01:12:51;;;;;;;8.38;2.13;;;27.60;54.60;;;;;;5052728;28;20044;-72
2022/08/02 01:16:03;;;;;;;14.70;2.28;;;27.60;54.50;;;;;;5052279;28;20052;-72
2022/08/02 01:19:21;;;;;;;18.15;2.35;;;27.50;55.50;;;;;;5052556;28;20044;-72
2022/08/02 01:23:01;;;;;;;13.05;2.13;;;27.30;55.60;;;;;;5052646;28;20462;-72
2022/08/02 01:26:37;;;;;;;14.10;3.30;;;27.20;56.10;;;;;;5051751;28;20072;-72
2022/08/02 01:29:44;;;;;;;14.38;2.88;;;27.20;56.50;;;;;;5052321;28;20043;-72
2022/08/02 01:32:56;;;;;;;13.02;2.78;;;27.20;56.60;;;;;;5052259;28;20048;-72
2022/08/02 01:36:01;;;;;;;7.03;2.50;;;27.20;57.20;;;;;;5051539;28;20043;-72
2022/08/02 01:39:10;;;;;;;7.95;2.40;;;27.20;57.80;;;;;;5052080;28;20048;-72
2022/08/02 01:42:15;;;;;;;6.75;2.10;;;27.20;57.20;;;;;;5052083;28;20056;-72
2022/08/02 01:45:22;;;;;;;7.53;2.17;;;27.20;57.40;;;;;;5051855;28;20056;-72
2022/08/02 01:48:28;;;;;;;6.30;2.22;;;27.20;57.40;;;;;;5052163;28;20400;-72
2022/08/02 01:55:07;;;;;;;15.13;2.70;;;27.10;57.40;;;;;;5050989;28;20036;-72
2022/08/02 01:58:13;;;;;;;9.05;2.60;;;27.10;58.10;;;;;;5051804;28;20075;-71
2022/08/02 02:01:19;;;;;;;7.93;2.60;;;27.00;58.30;;;;;;5051810;28;20056;-70
2022/08/02 02:04:25;;;;;;;8.65;2.58;;;26.90;58.70;;;;;;5051926;28;20043;-73
2022/08/02 02:07:32;;;;;;;8.45;2.17;;;26.80;58.50;;;;;;5051436;28;20048;-71
2022/08/02 02:10:39;;;;;;;8.45;2.90;;;26.60;58.60;;;;;;5051435;28;20048;-71
2022/08/02 02:13:44;;;;;;;12.55;2.67;;;26.50;58.70;;;;;;5051518;28;20048;-71
2022/08/02 02:16:48;;;;;;;6.72;2.55;;;26.30;59.30;;;;;;5051633;28;20051;-72
2022/08/02 02:19:53;;;;;;;4.75;2.75;;;26.40;59.60;;;;;;5050541;28;20040;-71
2022/08/02 02:22:58;;;;;;;5.97;2.55;;;26.40;59.50;;;;;;5051419;28;20060;-71
2022/08/02 02:26:04;;;;;;;10.45;2.65;;;26.40;59.20;;;;;;5051476;28;20047;-72
2022/08/02 02:29:10;;;;;;;7.53;2.70;;;26.20;59.70;;;;;;5051110;28;20155;-72
2022/08/02 02:32:15;;;;;;;7.05;2.60;;;26.10;60.20;;;;;;5051056;28;20052;-72
2022/08/02 02:35:20;;;;;;;6.25;2.47;;;25.80;60.60;;;;;;5051444;28;20048;-71
2022/08/02 02:38:27;;;;;;;10.20;2.97;;;25.80;60.40;;;;;;5051335;28;20183;-72
2022/08/02 02:41:32;;;;;;;11.75;2.90;;;25.90;60.80;;;;;;5050777;28;20063;-70
2022/08/02 02:44:38;;;;;;;13.82;2.50;;;26.00;60.70;;;;;;5051349;28;20107;-73
2022/08/02 02:47:42;;;;;;;10.30;2.58;;;26.00;60.70;;;;;;5050931;28;20048;-73
2022/08/02 02:50:47;;;;;;;12.63;2.55;;;26.00;61.20;;;;;;5050950;28;20499;-72
2022/08/02 02:53:53;;;;;;;9.60;2.40;;;25.90;60.50;;;;;;5050066;28;20044;-73
2022/08/02 02:56:59;;;;;;;8.15;2.65;;;25.80;61.20;;;;;;5050798;28;20044;-73
2022/08/02 03:00:08;;;;;;;4.53;2.45;;;25.60;61.30;;;;;;5050847;28;20503;-73
2022/08/02 03:03:12;;;;;;;5.68;2.58;;;25.50;61.30;;;;;;5050863;28;20048;-72
2022/08/02 03:06:17;;;;;;;9.40;2.83;;;25.60;61.40;;;;;;5049833;28;20055;-73
2022/08/02 03:09:22;;;;;;;5.72;2.47;;;25.70;61.00;;;;;;5050936;28;20071;-73
2022/08/02 03:12:27;;;;;;;7.97;2.88;;;25.80;60.70;;;;;;5051401;28;20063;-73
2022/08/02 03:15:33;;;;;;;12.75;3.05;;;26.00;60.10;;;;;;5050602;28;20040;-73
2022/08/02 03:18:42;;;;;;;9.10;2.78;;;26.10;60.40;;;;;;5051051;28;20123;-73
2022/08/02 03:21:47;;;;;;;13.65;3.15;;;26.30;59.70;;;;;;5050758;28;20044;-72
2022/08/02 03:24:52;;;;;;;6.70;2.90;;;26.40;59.10;;;;;;5050815;28;20040;-73
2022/08/02 03:27:55;;;;;;;7.35;2.80;;;26.40;59.50;;;;;;5050626;28;20048;-73
2022/08/02 03:31:01;;;;;;;12.70;2.88;;;26.10;60.20;;;;;;5052392;28;20056;-73
2022/08/02 03:34:05;;;;;;;11.85;3.33;;;25.90;60.50;;;;;;5054864;28;20519;-73
2022/08/02 03:37:09;;;;;;;7.13;2.92;;;25.90;61.00;;;;;;5054428;28;20392;-73
2022/08/02 03:40:13;;;;;;;9.00;3.15;;;25.80;61.20;;;;;;5054292;28;20060;-73
2022/08/02 03:43:18;;;;;;;10.75;2.72;;;25.50;61.80;;;;;;5054490;28;20051;-73
2022/08/02 03:46:23;;;;;;;4.45;2.70;;;25.40;62.10;;;;;;5054254;28;20048;-71
2022/08/02 03:49:30;;;;;;;15.63;3.17;;;25.40;61.50;;;;;;5054249;28;20063;-73
2022/08/02 03:52:35;;;;;;;16.55;3.00;;;25.30;61.90;;;;;;5054063;28;20048;-72
2022/08/02 03:55:39;;;;;;;8.65;2.53;;;25.10;62.60;;;;;;5054265;28;20672;-72
2022/08/02 03:58:43;;;;;;;17.27;3.22;;;25.10;63.20;;;;;;5053482;28;20044;-73
2022/08/02 04:01:47;;;;;;;7.45;2.80;;;25.00;63.20;;;;;;5054108;28;20543;-72
2022/08/02 04:04:52;;;;;;;17.10;3.20;;;25.00;63.20;;;;;;5054120;28;20055;-73
2022/08/02 04:07:56;;;;;;;14.88;3.30;;;25.00;63.80;;;;;;5054173;28;20281;-74
2022/08/02 04:14:22;;;;;;;21.67;3.15;;;24.90;63.90;;;;;;5054296;28;20047;-73
2022/08/02 04:17:30;;;;;;;10.32;2.88;;;24.90;64.50;;;;;;5053808;28;20519;-72
2022/08/02 04:20:36;;;;;;;10.07;2.83;;;24.80;64.30;;;;;;5054145;28;20048;-73
2022/08/02 04:23:42;;;;;;;21.23;3.67;;;24.80;64.70;;;;;;5053629;28;20081;-72
2022/08/02 04:26:48;;;;;;;9.60;3.05;;;24.80;64.40;;;;;;5052939;28;20060;-73
2022/08/02 04:29:53;;;;;;;20.88;3.88;;;24.70;64.60;;;;;;5052974;28;20044;-73
2022/08/02 04:32:58;;;;;;;16.38;3.97;;;24.60;64.90;;;;;;5053704;28;20052;-73
2022/08/02 04:36:04;;;;;;;15.77;3.20;;;24.60;65.00;;;;;;5053628;28;20040;-72
2022/08/02 04:39:07;;;;;;;19.45;3.78;;;24.80;64.70;;;;;;5053808;28;20486;-71
2022/08/02 04:42:22;;;;;;;17.40;3.33;;;25.00;64.80;;;;;;5053094;28;20227;-73
2022/08/02 04:45:29;;;;;;;13.25;3.47;;;25.20;63.60;;;;;;5053462;28;20044;-73
2022/08/02 04:48:34;;;;;;;17.83;3.03;;;26.00;61.70;;;;;;5053379;28;20043;-73
2022/08/02 04:51:42;;;;;;;10.00;2.67;;;26.90;60.30;;;;;;5053245;28;20059;-73
2022/08/02 04:54:47;;;;;;;16.35;4.15;;;28.00;58.20;;;;;;5052596;28;20040;-72
2022/08/02 04:57:54;;;;;;;12.27;3.33;;;28.90;56.60;;;;;;5041138;28;20044;-73
2022/08/02 05:00:58;;;;;;;14.38;3.40;;;29.80;54.90;;;;;;5052133;28;20052;-71
2022/08/02 05:04:02;;;;;;;14.95;2.83;;;30.30;53.90;;;;;;5053351;28;20052;-72
2022/08/02 05:07:07;;;;;;;16.60;3.72;;;30.90;53.10;;;;;;5052238;28;20048;-73
2022/08/02 05:10:11;;;;;;;17.15;3.53;;;31.80;52.40;;;;;;5052979;28;20056;-73
2022/08/02 05:13:18;;;;;;;17.05;3.20;;;32.20;51.40;;;;;;5040862;28;20048;-73
2022/08/02 05:16:21;;;;;;;28.55;4.00;;;32.50;51.20;;;;;;5052722;28;20048;-73
2022/08/02 05:19:25;;;;;;;21.90;3.22;;;32.40;51.10;;;;;;5052922;28;20044;-73
2022/08/02 05:22:30;;;;;;;16.63;3.60;;;32.20;51.80;;;;;;5052942;28;20047;-72
2022/08/02 05:25:34;;;;;;;20.17;3.47;;;31.60;52.90;;;;;;5052732;28;20396;-72
2022/08/02 05:28:38;;;;;;;29.42;3.90;;;31.10;53.40;;;;;;5051661;28;20047;-73
2022/08/02 05:31:45;;;;;;;23.05;3.78;;;30.90;54.00;;;;;;5052349;28;20059;-73
2022/08/02 05:34:50;;;;;;;17.52;4.53;;;30.80;54.30;;;;;;5052302;28;20123;-70
2022/08/02 05:37:54;;;;;;;19.98;3.30;;;30.80;53.90;;;;;;5051755;28;20044;-70
2022/08/02 05:40:59;;;;;;;15.50;4.25;;;30.70;53.60;;;;;;5052041;28;20052;-70
2022/08/02 05:44:03;;;;;;;16.23;3.58;;;30.80;54.20;;;;;;5051254;28;20492;-70
2022/08/02 05:47:07;;;;;;;17.95;3.50;;;30.80;54.20;;;;;;5051908;28;20040;-70
2022/08/02 05:50:11;;;;;;;13.95;3.25;;;30.90;53.20;;;;;;5051181;28;20048;-70
2022/08/02 05:53:23;;;;;;;20.88;3.42;;;31.10;53.70;;;;;;5051751;28;20048;-72
2022/08/02 05:56:47;;;;;;;20.00;3.95;;;31.10;53.80;;;;;;5051947;28;20535;-70
2022/08/02 06:00:12;;;;;;;26.08;3.97;;;31.10;53.70;;;;;;5050664;28;20048;-67
2022/08/02 06:03:31;;;;;;;20.05;4.57;;;31.30;53.90;;;;;;5051745;28;20107;-68
2022/08/02 06:06:36;;;;;;;16.05;4.95;;;31.40;53.50;;;;;;5051596;28;20044;-68
2022/08/02 06:09:42;;;;;;;13.75;4.57;;;31.40;53.90;;;;;;5051350;28;20043;-69
2022/08/02 06:13:05;;;;;;;13.25;3.78;;;31.70;53.10;;;;;;5051790;28;20047;-70
2022/08/02 06:16:09;;;;;;;13.27;4.43;;;31.80;52.20;;;;;;5051590;28;20043;-68
2022/08/02 06:19:15;;;;;;;14.85;5.32;;;32.10;51.90;;;;;;5051499;28;20392;-67
2022/08/02 06:22:19;;;;;;;16.65;5.50;;;32.30;51.80;;;;;;5051510;28;20040;-68
2022/08/02 06:25:23;;;;;;;28.65;7.40;;;32.50;52.00;;;;;;5051324;28;20055;-69
2022/08/02 06:28:29;;;;;;;14.85;6.70;;;32.50;51.90;;;;;;5051462;28;20048;-70
2022/08/02 06:31:35;;;;;;;21.75;6.93;;;32.50;52.40;;;;;;5051240;28;20059;-70
2022/08/02 06:34:40;;;;;;;22.02;5.55;;;32.70;51.50;;;;;;5051339;28;20404;-69
2022/08/02 06:37:50;;;;;;;13.57;5.15;;;32.90;50.50;;;;;;5051027;28;20401;-67
2022/08/02 06:41:04;;;;;;;23.17;5.75;;;33.10;50.70;;;;;;5050984;28;20052;-70
2022/08/02 06:44:09;;;;;;;15.02;5.13;;;33.30;50.60;;;;;;5051263;28;20055;-69
2022/08/02 06:47:13;;;;;;;9.57;3.42;;;33.50;49.60;;;;;;5050532;28;20055;-70
2022/08/02 06:50:17;;;;;;;24.20;4.93;;;33.70;48.30;;;;;;5050391;28;20603;-68
2022/08/02 06:53:24;;;;;;;27.30;4.60;;;33.80;49.50;;;;;;5050534;28;20043;-70
2022/08/02 06:56:28;;;;;;;11.57;3.60;;;34.00;49.40;;;;;;5051000;28;20507;-70
2022/08/02 06:59:32;;;;;;;10.57;3.22;;;33.90;47.80;;;;;;5050851;28;20052;-69
2022/08/02 07:02:36;;;;;;;8.35;2.50;;;33.90;47.60;;;;;;5050725;28;20048;-70
2022/08/02 07:05:44;;;;;;;7.70;2.55;;;33.90;47.30;;;;;;5049237;28;20040;-69
2022/08/02 07:08:48;;;;;;;7.15;2.33;;;33.80;47.90;;;;;;5051122;28;20056;-69
2022/08/02 07:11:52;;;;;;;9.13;3.28;;;34.20;47.20;;;;;;5050857;28;20066;-70
2022/08/02 07:15:01;;;;;;;9.93;2.40;;;34.90;46.90;;;;;;5051007;28;20048;-71
2022/08/02 07:18:05;;;;;;;5.80;2.08;;;35.90;46.10;;;;;;5050377;28;20060;-70
2022/08/02 07:21:09;;;;;;;5.35;2.13;;;36.20;45.50;;;;;;5050775;28;20520;-70
2022/08/02 07:24:13;;;;;;;6.57;1.95;;;36.50;45.20;;;;;;5050617;28;20060;-70
2022/08/02 07:27:18;;;;;;;9.50;2.40;;;36.70;44.10;;;;;;5050508;28;20106;-70
2022/08/02 07:30:22;;;;;;;5.80;1.70;;;36.00;43.80;;;;;;5050875;28;20416;-72
2022/08/02 07:33:26;;;;;;;9.55;1.88;;;35.50;44.50;;;;;;5050727;28;20056;-70
2022/08/02 07:36:30;;;;;;;7.43;2.10;;;35.80;44.80;;;;;;5050540;28;20048;-68
2022/08/02 07:39:33;;;;;;;4.85;1.75;;;36.50;44.40;;;;;;5050505;28;20393;-70
2022/08/02 07:42:38;;;;;;;4.65;1.83;;;36.40;43.30;;;;;;5050804;28;20503;-71
2022/08/02 07:45:42;;;;;;;4.28;1.88;;;35.80;44.00;;;;;;5050075;28;20048;-71
2022/08/02 07:48:52;;;;;;;10.43;2.10;;;36.20;44.20;;;;;;5050491;28;20067;-70
2022/08/02 07:51:56;;;;;;;6.53;1.77;;;36.50;43.70;;;;;;5050408;28;20052;-71
2022/08/02 07:55:00;;;;;;;5.70;1.80;;;36.20;43.90;;;;;;5050328;28;20040;-70
2022/08/02 07:58:04;;;;;;;6.40;1.80;;;36.40;44.00;;;;;;5050199;28;20044;-70
2022/08/02 08:01:11;;;;;;;4.10;1.65;;;35.90;44.40;;;;;;5050323;28;20413;-73
2022/08/02 08:04:16;;;;;;;10.20;1.90;;;36.60;44.40;;;;;;5050465;28;20051;-72
2022/08/02 08:07:24;;;;;;;5.32;2.17;;;36.30;44.10;;;;;;5050519;28;20036;-72
2022/08/02 08:10:28;;;;;;;8.43;2.17;;;36.80;43.90;;;;;;5050251;28;20048;-69
2022/08/02 08:13:33;;;;;;;9.65;2.00;;;36.30;44.30;;;;;;5050350;28;20129;-72
2022/08/02 08:16:37;;;;;;;6.55;2.15;;;35.90;44.50;;;;;;5050229;28;20420;-69
2022/08/02 08:19:41;;;;;;;5.47;2.00;;;35.70;44.70;;;;;;5054106;28;20047;-71
2022/08/02 08:22:45;;;;;;;7.47;1.95;;;35.80;45.00;;;;;;5053986;28;20051;-69
2022/08/02 08:25:49;;;;;;;9.57;2.17;;;35.80;45.60;;;;;;5053785;28;20048;-72
2022/08/02 08:28:54;;;;;;;4.63;2.20;;;35.70;45.30;;;;;;5052673;28;20044;-71
2022/08/02 08:31:57;;;;;;;7.50;1.90;;;35.50;45.00;;;;;;5053343;28;20044;-69
2022/08/02 08:35:05;;;;;;;6.50;2.00;;;35.50;45.40;;;;;;5053639;28;20119;-69
2022/08/02 08:38:09;;;;;;;7.70;1.80;;;35.40;45.20;;;;;;5058370;28;20043;-69
2022/08/02 08:41:18;;;;;;;7.03;1.98;;;35.20;45.90;;;;;;5052010;28;20412;-71
2022/08/02 08:44:22;;;;;;;4.93;2.00;;;35.30;46.20;;;;;;5053343;28;20059;-70
2022/08/02 08:47:35;;;;;;;5.10;2.05;;;35.40;45.60;;;;;;5052986;28;20489;-69
2022/08/02 08:50:59;;;;;;;5.18;1.77;;;35.50;46.20;;;;;;5053133;28;20059;-70
2022/08/02 08:54:06;;;;;;;15.55;2.08;;;35.50;45.60;;;;;;5052618;28;20074;-68
2022/08/02 08:57:10;;;;;;;6.75;2.00;;;35.50;45.70;;;;;;5051626;28;20044;-67
2022/08/02 09:00:18;;;;;;;11.13;2.42;;;35.50;45.90;;;;;;5052314;28;20056;-69
2022/08/02 09:03:22;;;;;;;3.15;1.95;;;35.50;45.60;;;;;;5052817;28;20036;-71
2022/08/02 09:06:27;;;;;;;7.70;1.95;;;35.60;45.40;;;;;;5053307;28;20044;-71
2022/08/02 09:09:31;;;;;;;3.72;1.77;;;35.20;45.70;;;;;;5052805;28;20511;-69
2022/08/02 09:12:35;;;;;;;6.97;2.05;;;35.00;45.90;;;;;;5052959;28;20064;-69
2022/08/02 09:15:41;;;;;;;6.03;2.13;;;35.10;45.90;;;;;;5052704;28;20056;-69
2022/08/02 09:18:45;;;;;;;3.78;2.17;;;35.30;45.90;;;;;;5052860;28;20060;-70
2022/08/02 09:22:00;;;;;;;7.80;1.90;;;35.30;46.40;;;;;;5052882;28;20052;-70
2022/08/02 09:25:13;;;;;;;9.75;2.17;;;35.20;46.00;;;;;;5050290;28;20048;-69
2022/08/02 09:28:17;;;;;;;5.03;1.80;;;35.10;45.90;;;;;;5051539;28;20048;-69
2022/08/02 09:31:23;;;;;;;2.92;1.85;;;35.00;45.90;;;;;;5051086;28;20056;-70
2022/08/02 09:34:46;;;;;;;4.82;1.90;;;35.10;46.20;;;;;;5052549;28;20047;-72
2022/08/02 09:37:50;;;;;;;4.82;2.08;;;35.50;45.80;;;;;;5052717;28;20052;-69
2022/08/02 09:40:54;;;;;;;8.05;2.45;;;36.60;44.60;;;;;;5051426;28;20044;-69
2022/08/02 09:44:00;;;;;;;9.10;1.98;;;36.10;45.00;;;;;;5052295;28;20059;-68
2022/08/02 09:47:15;;;;;;;7.68;1.80;;;37.70;44.70;;;;;;5051953;28;20052;-67
2022/08/02 09:50:19;;;;;;;7.72;1.85;;;38.40;43.30;;;;;;5051090;28;20048;-68
2022/08/02 09:53:23;;;;;;;3.78;1.70;;;38.30;43.30;;;;;;5052176;28;20448;-69
2022/08/02 09:56:38;;;;;;;12.73;1.77;;;38.60;43.40;;;;;;5052257;28;20043;-68
2022/08/02 09:59:52;;;;;;;7.68;1.70;;;38.40;42.90;;;;;;5052126;28;20401;-70
2022/08/02 10:03:10;;;;;;;9.98;2.00;;;38.10;43.30;;;;;;5052219;28;20040;-70
2022/08/02 10:06:14;;;;;;;4.95;1.80;;;38.30;42.90;;;;;;5051403;28;20056;-71
2022/08/02 10:09:19;;;;;;;9.05;1.90;;;38.80;42.60;;;;;;5051154;28;20052;-70
2022/08/02 10:12:24;;;;;;;6.78;1.77;;;39.30;42.70;;;;;;5050618;28;20050;-68
2022/08/02 10:15:28;;;;;;;3.38;1.85;;;39.20;42.70;;;;;;5050414;28;20052;-68
2022/08/02 10:18:33;;;;;;;7.55;1.52;;;39.30;42.80;;;;;;5051773;28;20036;-67
2022/08/02 10:21:37;;;;;;;9.45;1.73;;;39.80;42.10;;;;;;5051374;28;20392;-71
2022/08/02 10:24:41;;;;;;;13.35;2.20;;;39.30;42.10;;;;;;5051076;28;20044;-67
2022/08/02 10:27:47;;;;;;;8.95;2.08;;;39.30;42.20;;;;;;5051582;28;20040;-68
2022/08/02 10:30:56;;;;;;;4.55;1.70;;;39.80;42.50;;;;;;5051217;28;20051;-68
2022/08/02 10:34:02;;;;;;;7.43;1.65;;;40.30;41.60;;;;;;5051478;28;20507;-67
2022/08/02 10:37:12;;;;;;;3.15;1.42;;;39.90;41.20;;;;;;5050448;28;20416;-68
2022/08/02 10:40:27;;;;;;;3.63;1.70;;;39.00;41.30;;;;;;5050147;28;20519;-70
2022/08/02 10:43:31;;;;;;;13.95;1.92;;;37.90;42.60;;;;;;5051487;28;20048;-68
2022/08/02 10:46:36;;;;;;;4.57;1.77;;;36.90;44.00;;;;;;5051215;28;20048;-70
2022/08/02 10:49:54;;;;;;;6.28;1.92;;;36.40;44.90;;;;;;5050989;28;20388;-67
2022/08/02 10:53:28;;;;;;;4.93;1.75;;;36.30;45.10;;;;;;5051004;28;20044;-67
2022/08/02 10:56:45;;;;;;;20.05;4.07;;;36.40;45.30;;;;;;5050942;28;20056;-69
2022/08/02 10:59:53;;;;;;;5.43;1.73;;;36.10;45.00;;;;;;5050809;28;20047;-69
2022/08/02 11:02:57;;;;;;;5.90;2.40;;;37.20;44.60;;;;;;5050633;28;20518;-67
2022/08/02 11:06:12;;;;;;;5.70;1.85;;;38.30;43.30;;;;;;5051008;28;20051;-68
2022/08/02 11:09:29;;;;;;;9.32;1.67;;;38.50;43.30;;;;;;5050168;28;20048;-68
2022/08/02 11:13:00;;;;;;;8.40;1.88;;;38.70;42.90;;;;;;5050732;28;20064;-68
2022/08/02 11:16:04;;;;;;;8.38;1.65;;;39.00;42.80;;;;;;5051054;28;20044;-69
2022/08/02 11:19:10;;;;;;;6.68;2.13;;;38.30;43.20;;;;;;5051124;28;20045;-69
2022/08/02 11:22:18;;;;;;;7.53;1.33;;;37.90;43.70;;;;;;5051058;28;20044;-69
2022/08/02 11:25:22;;;;;;;6.95;1.77;;;38.10;43.50;;;;;;5049787;28;20041;-68
2022/08/02 11:28:26;;;;;;;7.88;1.90;;;38.70;42.90;;;;;;5050163;28;20044;-68
2022/08/02 11:31:42;;;;;;;5.18;1.60;;;39.20;43.30;;;;;;5050698;28;20539;-67
2022/08/02 11:34:50;;;;;;;4.43;1.60;;;39.90;42.40;;;;;;5050615;28;20216;-68
2022/08/02 11:37:54;;;;;;;8.82;1.73;;;39.90;41.60;;;;;;5050523;28;20040;-68
2022/08/02 11:40:58;;;;;;;7.43;1.75;;;40.10;42.30;;;;;;5050533;28;20059;-67
2022/08/02 11:44:03;;;;;;;1.70;1.35;;;40.40;42.10;;;;;;5050926;28;20056;-69
2022/08/02 11:47:08;;;;;;;2.78;1.80;;;40.40;41.10;;;;;;5050761;28;20388;-68
2022/08/02 11:50:12;;;;;;;4.13;1.30;;;39.90;41.40;;;;;;5050580;28;20056;-67
2022/08/02 11:53:16;;;;;;;5.22;1.50;;;39.80;41.60;;;;;;5054380;28;20056;-68
2022/08/02 11:56:33;;;;;;;2.50;1.40;;;39.90;41.20;;;;;;5053673;28;20044;-69
2022/08/02 11:59:42;;;;;;;4.47;1.75;;;39.40;41.70;;;;;;5054520;28;20400;-68
2022/08/02 12:02:47;;;;;;;14.07;2.03;;;39.20;41.30;;;;;;5053400;28;20511;-69
2022/08/02 12:05:51;;;;;;;2.78;1.42;;;39.60;41.70;;;;;;5053870;28;20565;-68
2022/08/02 12:09:05;;;;;;;2.53;1.75;;;39.80;41.30;;;;;;5054024;28;20503;-68
2022/08/02 12:12:09;;;;;;;1.80;1.40;;;39.80;41.20;;;;;;5053788;28;20072;-67
2022/08/02 12:15:13;;;;;;;3.85;1.60;;;39.60;41.00;;;;;;5053995;28;20044;-69
2022/08/02 12:21:44;;;;;;;2.72;1.50;;;40.10;41.50;;;;;;5053765;28;20040;-66
2022/08/02 12:24:51;;;;;;;2.78;1.38;;;39.00;41.90;;;;;;5053644;28;20051;-68
2022/08/02 12:28:21;;;;;;;6.80;1.55;;;38.20;41.70;;;;;;5053600;28;20044;-67
2022/08/02 12:31:40;;;;;;;4.95;1.38;;;37.60;42.50;;;;;;5053749;28;20048;-68
2022/08/02 12:35:19;;;;;;;4.20;1.48;;;37.10;42.70;;;;;;5052803;28;20383;-68
2022/08/02 12:38:24;;;;;;;3.93;1.67;;;36.90;43.20;;;;;;5053648;28;20056;-69
2022/08/02 12:41:28;;;;;;;3.90;1.17;;;36.90;43.30;;;;;;5053344;28;20048;-69
2022/08/02 12:44:34;;;;;;;4.82;1.02;;;36.70;43.10;;;;;;5053580;28;20043;-68
2022/08/02 12:47:47;;;;;;;3.08;1.55;;;36.50;43.10;;;;;;5053165;28;20044;-69
2022/08/02 12:50:51;;;;;;;3.10;1.60;;;36.40;43.90;;;;;;5053136;28;20040;-67
2022/08/02 12:54:12;;;;;;;2.53;1.42;;;36.40;42.90;;;;;;5053008;28;20051;-69
2022/08/02 12:57:17;;;;;;;;;;;36.50;43.00;;;;;;5053689;28;20420;-68
2022/08/02 13:00:35;;;;;;;4.20;2.05;;;36.60;42.80;;;;;;5052465;28;19916;-68
2022/08/02 13:03:39;;;;;;;7.45;1.30;;;36.60;43.60;;;;;;5052202;28;20139;-68
2022/08/02 13:06:46;;;;;;;1.40;1.30;;;36.50;42.30;;;;;;5052914;28;20044;-67
2022/08/02 13:09:50;;;;;;;3.65;1.38;;;36.40;42.20;;;;;;5053256;28;20420;-68
2022/08/02 13:12:55;;;;;;;2.10;1.25;;;36.40;42.20;;;;;;5052943;28;20056;-68
2022/08/02 13:15:59;;;;;;;3.30;1.13;;;36.50;41.90;;;;;;5052761;28;20044;-68
2022/08/02 13:19:06;;;;;;;2.40;1.35;;;36.50;41.50;;;;;;5052768;28;20044;-67
2022/08/02 13:22:10;;;;;;;14.85;1.98;;;36.40;41.60;;;;;;5052926;28;20032;-68
2022/08/02 13:25:14;;;;;;;8.98;1.50;;;36.40;41.90;;;;;;5052612;28;20048;-68
2022/08/02 13:28:19;;;;;;;1.40;1.30;;;36.40;41.80;;;;;;5052526;28;20051;-68
2022/08/02 13:31:23;;;;;;;4.70;1.30;;;36.20;42.00;;;;;;5052566;28;20044;-68
2022/08/02 13:34:26;;;;;;;3.80;1.30;;;36.10;42.50;;;;;;5052383;28;20203;-68
2022/08/02 13:37:32;;;;;;;1.98;1.17;;;36.20;41.70;;;;;;5052553;28;20151;-68
2022/08/02 13:43:59;;;;;;;2.20;1.00;;;36.40;42.40;;;;;;5052172;28;20044;-69
2022/08/02 13:47:03;;;;;;;3.05;1.38;;;36.40;42.10;;;;;;5052404;28;20056;-69
2022/08/02 13:50:07;;;;;;;3.42;1.38;;;36.30;41.50;;;;;;5051301;28;20392;-68
2022/08/02 13:53:11;;;;;;;6.68;1.42;;;36.40;42.40;;;;;;5051197;28;20060;-70
2022/08/02 13:56:15;;;;;;;4.78;1.60;;;36.30;42.60;;;;;;5051765;28;20048;-72
2022/08/02 13:59:19;;;;;;;4.80;1.70;;;37.20;42.10;;;;;;5052196;28;20052;-69
2022/08/02 14:02:24;;;;;;;5.30;1.30;;;38.40;41.00;;;;;;5051023;28;20511;-69
2022/08/02 14:05:30;;;;;;;2.17;1.20;;;39.00;40.50;;;;;;5050685;28;20052;-70
2022/08/02 14:08:35;;;;;;;2.58;1.80;;;39.70;40.20;;;;;;5051716;28;20048;-70
2022/08/02 14:11:39;;;;;;;3.55;1.50;;;39.80;40.60;;;;;;5051517;28;20056;-69
2022/08/02 14:14:43;;;;;;;3.15;1.63;;;40.30;40.40;;;;;;5051548;28;20071;-69
2022/08/02 14:17:47;;;;;;;4.47;1.60;;;40.50;40.30;;;;;;5051544;28;20396;-69
2022/08/02 14:20:51;;;;;;;16.70;5.85;;;40.90;39.90;;;;;;5051528;28;20052;-67
2022/08/02 14:23:55;;;;;;;8.98;3.15;;;40.60;42.30;;;;;;5050721;28;20056;-67
2022/08/02 14:27:00;;;;;;;7.57;3.95;;;40.80;42.90;;;;;;5050999;28;20052;-68
2022/08/02 14:30:05;;;;;;;8.70;3.70;;;40.70;43.10;;;;;;5051295;28;20052;-67
2022/08/02 14:33:09;;;;;;;14.40;4.07;;;40.70;43.10;;;;;;5051195;28;20076;-68
2022/08/02 14:36:13;;;;;;;6.95;3.20;;;40.80;43.10;;;;;;5051543;28;20503;-67
2022/08/02 14:39:20;;;;;;;6.80;2.67;;;40.60;43.30;;;;;;5050353;28;20044;-69
2022/08/02 14:42:24;;;;;;;17.92;5.55;;;40.70;43.50;;;;;;5051511;28;20056;-69
2022/08/02 14:45:31;;;;;;;12.50;3.08;;;40.60;43.90;;;;;;5051337;28;20049;-68
2022/08/02 14:48:35;;;;;;;18.70;4.32;;;40.50;44.30;;;;;;5050461;28;20044;-68
2022/08/02 14:51:40;;;;;;;8.20;3.28;;;40.50;44.40;;;;;;5051097;28;20044;-66
2022/08/02 14:54:44;;;;;;;11.82;2.65;;;40.60;44.10;;;;;;5051203;28;20048;-68
2022/08/02 14:57:49;;;;;;;6.80;2.47;;;40.80;44.70;;;;;;5050937;28;20040;-68
2022/08/02 15:00:53;;;;;;;12.80;4.38;;;40.60;43.80;;;;;;5051128;28;20503;-67
2022/08/02 15:03:57;;;;;;;12.35;2.90;;;40.60;43.90;;;;;;5051345;28;20048;-68
2022/08/02 15:07:01;;;;;;;22.98;7.45;;;40.50;44.10;;;;;;5050826;28;20654;-71
2022/08/02 15:10:06;;;;;;;25.30;8.57;;;40.50;45.10;;;;;;5050241;28;20048;-68
2022/08/02 15:13:10;;;;;;;13.40;5.60;;;40.50;45.10;;;;;;5050658;28;20400;-71
2022/08/02 15:16:14;;;;;;;13.75;4.65;;;40.40;43.90;;;;;;5050160;28;20591;-67
2022/08/02 15:19:21;;;;;;;10.55;4.45;;;40.50;43.60;;;;;;5051248;28;20504;-67
2022/08/02 15:22:25;;;;;;;9.20;4.07;;;40.50;43.60;;;;;;5050913;28;20044;-68
2022/08/02 15:25:30;;;;;;;7.15;4.30;;;40.70;44.20;;;;;;5050719;28;20059;-68
2022/08/02 15:28:37;;;;;;;12.20;4.75;;;40.70;44.80;;;;;;5053828;28;20052;-67
2022/08/02 15:31:41;;;;;;;8.90;4.85;;;40.60;44.90;;;;;;5054821;28;20060;-68
2022/08/02 15:34:46;;;;;;;14.35;5.82;;;40.60;45.10;;;;;;5054770;28;20071;-69
2022/08/02 15:37:50;;;;;;;12.80;4.53;;;40.70;45.70;;;;;;5054730;28;20044;-68
2022/08/02 15:40:54;;;;;;;8.98;3.42;;;40.80;45.00;;;;;;5053792;28;20056;-67
2022/08/02 15:44:00;;;;;;;10.43;3.40;;;40.80;45.10;;;;;;5053610;28;20055;-68
2022/08/02 15:47:07;;;;;;;15.43;3.25;;;40.60;45.10;;;;;;5054601;28;20052;-68
2022/08/02 15:50:11;;;;;;;11.55;3.58;;;40.60;44.90;;;;;;5054331;28;20127;-68
2022/08/02 15:53:15;;;;;;;4.47;3.08;;;40.60;44.70;;;;;;5054319;28;20052;-68
2022/08/02 15:56:19;;;;;;;11.68;2.50;;;39.60;45.00;;;;;;5054157;28;20048;-68
2022/08/02 15:59:23;;;;;;;11.35;2.60;;;38.70;46.60;;;;;;5054378;28;20519;-68
2022/08/02 16:02:27;;;;;;;11.00;2.60;;;38.00;47.40;;;;;;5053287;28;20412;-69
2022/08/02 16:05:31;;;;;;;8.45;3.15;;;37.30;47.90;;;;;;5053776;28;20048;-68
2022/08/02 16:08:35;;;;;;;10.38;2.50;;;36.80;48.60;;;;;;5054144;28;20044;-66
2022/08/02 16:11:39;;;;;;;6.65;3.05;;;36.50;48.70;;;;;;5053731;28;20048;-66
2022/08/02 16:14:44;;;;;;;10.90;4.13;;;36.30;49.30;;;;;;5053417;28;20048;-65
2022/08/02 16:17:48;;;;;;;9.07;5.15;;;36.10;50.40;;;;;;5053490;28;20044;-66
2022/08/02 16:20:52;;;;;;;9.52;5.32;;;36.00;51.60;;;;;;5053779;28;20049;-68